Time;durP1;ratioP1;P1;durP2;ratioP2;P2;SDS_P1;SDS_P2;PMS_P1;PMS_P2;Temp;Humidity;BMP_temperature;BMP_pressure;BME280_temperature;BME280_humidity;BME280_pressure;Samples;Min_cycle;Max_cycle;Signal;HPM_P1;HPM_P2
2022/04/14 00:00:27;;;;;;;16.35;14.43;;;;;;;;;;5039047;28;20057;-77
2022/04/14 00:02:53;;;;;;;20.25;14.32;;;;;;;;;;5022701;28;20208;-77
2022/04/14 00:05:19;;;;;;;19.42;14.85;;;;;;;;;;5011369;28;20401;-77
2022/04/14 00:07:45;;;;;;;18.38;14.13;;;;;;;;;;5007623;28;20129;-77
2022/04/14 00:10:12;;;;;;;19.00;14.32;;;;;;;;;;5008643;28;20057;-77
2022/04/14 00:12:38;;;;;;;17.80;14.32;;;;;;;;;;5009363;28;20053;-78
2022/04/14 00:15:05;;;;;;;18.17;14.32;;;;;;;;;;5015696;28;20041;-77
2022/04/14 00:17:32;;;;;;;19.33;14.05;;;;;;;;;;5006752;28;20548;-77
2022/04/14 00:20:01;;;;;;;17.90;13.38;;;;;;;;;;5001445;28;20050;-77
2022/04/14 00:22:28;;;;;;;17.15;13.13;;;;;;;;;;5005309;28;20052;-77
2022/04/14 00:24:53;;;;;;;20.10;13.98;;;;;;;;;;5041254;28;20050;-77
2022/04/14 00:27:20;;;;;;;17.23;13.70;;;;;;;;;;5004936;28;20040;-77
2022/04/14 00:29:49;;;;;;;20.13;13.98;;;;;;;;;;5007360;28;20366;-77
2022/04/14 00:32:15;;;;;;;17.98;13.43;;;;;;;;;;5007438;28;20193;-77
2022/04/14 00:34:41;;;;;;;15.65;12.85;;;;;;;;;;5039160;28;20049;-77
2022/04/14 00:37:09;;;;;;;16.88;13.57;;;;;;;;;;5003881;28;20056;-77
2022/04/14 00:39:35;;;;;;;17.63;12.68;;;;;;;;;;5008420;28;20050;-77
2022/04/14 00:42:01;;;;;;;16.40;12.90;;;;;;;;;;5039565;28;20129;-77
2022/04/14 00:44:27;;;;;;;18.60;12.63;;;;;;;;;;5034623;28;20048;-77
2022/04/14 00:46:54;;;;;;;16.35;13.77;;;;;;;;;;5009774;28;20037;-77
2022/04/14 00:49:20;;;;;;;19.80;13.23;;;;;;;;;;5008305;28;20038;-77
2022/04/14 00:51:46;;;;;;;18.75;13.88;;;;;;;;;;5011156;28;20494;-76
2022/04/14 00:54:12;;;;;;;16.17;13.40;;;;;;;;;;5030850;28;20078;-77
2022/04/14 00:56:38;;;;;;;18.85;14.48;;;;;;;;;;5006572;28;20093;-77
2022/04/14 00:59:04;;;;;;;18.08;13.40;;;;;;;;;;5005963;28;20146;-78
2022/04/14 01:01:30;;;;;;;19.98;13.73;;;;;;;;;;5007649;28;20104;-77
2022/04/14 01:03:57;;;;;;;20.35;14.63;;;;;;;;;;5008189;28;20489;-77
2022/04/14 01:06:29;;;;;;;16.83;12.90;;;;;;;;;;5016333;28;20065;-77
2022/04/14 01:11:41;;;;;;;16.55;12.70;;;;;;;;;;5008449;28;20045;-77
2022/04/14 01:14:07;;;;;;;16.85;13.20;;;;;;;;;;5008943;28;20108;-77
2022/04/14 01:16:33;;;;;;;17.30;13.65;;;;;;;;;;5010203;28;20409;-77
2022/04/14 01:18:59;;;;;;;16.88;12.57;;;;;;;;;;5003153;28;20042;-77
2022/04/14 01:21:28;;;;;;;17.83;13.95;;;;;;;;;;5010577;28;20533;-77
2022/04/14 01:23:54;;;;;;;20.75;14.60;;;;;;;;;;5035010;28;20073;-77
2022/04/14 01:26:21;;;;;;;21.27;14.20;;;;;;;;;;5012828;28;20060;-77
2022/04/14 01:28:47;;;;;;;19.25;14.05;;;;;;;;;;5008743;28;20041;-78
2022/04/14 01:31:13;;;;;;;18.02;14.35;;;;;;;;;;5023563;28;20050;-78
2022/04/14 01:33:39;;;;;;;18.83;14.18;;;;;;;;;;5021078;28;20496;-78
2022/04/14 01:36:05;;;;;;;18.08;13.82;;;;;;;;;;5009595;28;20046;-78
2022/04/14 01:38:31;;;;;;;22.27;13.52;;;;;;;;;;5004195;28;20052;-78
2022/04/14 01:40:57;;;;;;;22.67;13.95;;;;;;;;;;5009813;28;20045;-78
2022/04/14 01:43:23;;;;;;;18.77;13.15;;;;;;;;;;5006377;28;20046;-78
2022/04/14 01:45:51;;;;;;;20.83;13.85;;;;;;;;;;5011090;28;20041;-78
2022/04/14 01:48:17;;;;;;;20.55;14.02;;;;;;;;;;5007993;28;20057;-77
2022/04/14 01:50:44;;;;;;;21.63;13.95;;;;;;;;;;5015585;28;20038;-77
2022/04/14 01:53:10;;;;;;;19.20;13.75;;;;;;;;;;5007692;28;20050;-77
2022/04/14 01:55:36;;;;;;;19.40;13.82;;;;;;;;;;5013754;28;20038;-77
2022/04/14 01:58:02;;;;;;;18.95;13.60;;;;;;;;;;5044894;28;20068;-77
2022/04/14 02:00:28;;;;;;;17.20;13.68;;;;;;;;;;5043316;28;20734;-77
2022/04/14 02:02:54;;;;;;;21.92;14.70;;;;;;;;;;5041322;28;20045;-77
2022/04/14 02:05:20;;;;;;;19.70;14.98;;;;;;;;;;5042146;28;20081;-77
2022/04/14 02:07:46;;;;;;;19.33;15.45;;;;;;;;;;5038034;28;20042;-77
2022/04/14 02:10:14;;;;;;;22.27;15.20;;;;;;;;;;5011461;28;20056;-77
2022/04/14 02:12:40;;;;;;;20.42;14.93;;;;;;;;;;5007194;28;20451;-77
2022/04/14 02:15:06;;;;;;;20.05;15.18;;;;;;;;;;5003499;28;20453;-77
2022/04/14 02:17:32;;;;;;;19.45;15.25;;;;;;;;;;5009480;28;20111;-77
2022/04/14 02:19:58;;;;;;;19.75;14.75;;;;;;;;;;5011795;28;20045;-77
2022/04/14 02:22:24;;;;;;;22.52;15.68;;;;;;;;;;5014271;28;20044;-77
2022/04/14 02:24:53;;;;;;;19.15;15.75;;;;;;;;;;5044948;28;20049;-77
2022/04/14 02:27:21;;;;;;;21.52;15.95;;;;;;;;;;5014184;28;20087;-77
2022/04/14 02:29:47;;;;;;;22.38;15.77;;;;;;;;;;5043006;28;20050;-77
2022/04/14 02:32:13;;;;;;;20.27;15.43;;;;;;;;;;5007064;28;20093;-77
2022/04/14 02:34:39;;;;;;;22.48;16.02;;;;;;;;;;5041347;28;20078;-77
2022/04/14 02:37:04;;;;;;;19.63;15.98;;;;;;;;;;5007092;28;20042;-77
2022/04/14 02:39:31;;;;;;;22.48;16.88;;;;;;;;;;5010485;28;20397;-77
2022/04/14 02:41:59;;;;;;;19.23;14.95;;;;;;;;;;5009242;28;20576;-77
2022/04/14 02:44:25;;;;;;;21.80;15.88;;;;;;;;;;5016687;28;20070;-77
2022/04/14 02:46:51;;;;;;;19.75;15.73;;;;;;;;;;5005724;28;20598;-77
2022/04/14 02:49:17;;;;;;;23.55;16.38;;;;;;;;;;5007601;28;20133;-77
2022/04/14 02:51:45;;;;;;;22.60;14.95;;;;;;;;;;5005892;28;20038;-77
2022/04/14 02:54:12;;;;;;;20.77;15.68;;;;;;;;;;5010554;28;20482;-77
2022/04/14 02:56:38;;;;;;;20.65;15.68;;;;;;;;;;5039946;28;20117;-77
2022/04/14 02:59:04;;;;;;;23.33;16.33;;;;;;;;;;5002535;28;20137;-77
2022/04/14 03:01:30;;;;;;;21.65;16.08;;;;;;;;;;5041005;28;20042;-77
2022/04/14 03:03:56;;;;;;;21.83;16.25;;;;;;;;;;5010439;28;20041;-77
2022/04/14 03:06:22;;;;;;;25.52;17.02;;;;;;;;;;5006631;28;20053;-77
2022/04/14 03:08:48;;;;;;;24.15;17.02;;;;;;;;;;5035906;28;20048;-76
2022/04/14 03:11:14;;;;;;;20.90;17.25;;;;;;;;;;5008839;28;20049;-76
2022/04/14 03:13:41;;;;;;;21.83;17.27;;;;;;;;;;5001053;28;20041;-77
2022/04/14 03:16:07;;;;;;;24.38;17.00;;;;;;;;;;5007096;28;20053;-77
2022/04/14 03:18:33;;;;;;;27.17;17.83;;;;;;;;;;5015706;28;20048;-76
2022/04/14 03:21:00;;;;;;;22.73;18.05;;;;;;;;;;5034620;28;20056;-77
2022/04/14 03:23:26;;;;;;;27.20;19.65;;;;;;;;;;5013485;28;20074;-77
2022/04/14 03:25:52;;;;;;;22.40;18.30;;;;;;;;;;5008837;28;20053;-76
2022/04/14 03:28:18;;;;;;;26.83;20.48;;;;;;;;;;5003165;28;20042;-77
2022/04/14 03:30:45;;;;;;;23.27;18.60;;;;;;;;;;4970637;28;1069445;-77
2022/04/14 03:33:11;;;;;;;22.02;17.55;;;;;;;;;;5043655;28;20049;-77
2022/04/14 03:35:37;;;;;;;23.67;18.92;;;;;;;;;;5004242;28;20485;-78
2022/04/14 03:38:03;;;;;;;25.50;17.58;;;;;;;;;;5007187;28;20371;-77
2022/04/14 03:40:29;;;;;;;21.40;17.08;;;;;;;;;;5004012;28;20475;-77
2022/04/14 03:42:56;;;;;;;23.55;17.75;;;;;;;;;;5007279;28;20145;-77
2022/04/14 03:45:22;;;;;;;22.42;17.25;;;;;;;;;;5041489;28;20515;-77
2022/04/14 03:47:48;;;;;;;26.08;17.60;;;;;;;;;;5016738;28;20041;-77
2022/04/14 03:50:14;;;;;;;23.23;17.38;;;;;;;;;;5007641;28;20482;-77
2022/04/14 03:52:40;;;;;;;25.83;16.73;;;;;;;;;;5014580;28;20034;-77
2022/04/14 03:55:07;;;;;;;22.00;16.25;;;;;;;;;;5012553;28;20061;-77
2022/04/14 03:57:33;;;;;;;23.45;17.55;;;;;;;;;;5007540;28;20182;-77
2022/04/14 03:59:59;;;;;;;22.33;16.40;;;;;;;;;;5009162;28;20534;-77
2022/04/14 04:02:25;;;;;;;27.42;17.33;;;;;;;;;;5003719;28;20058;-77
2022/04/14 04:04:50;;;;;;;22.58;18.23;;;;;;;;;;5018455;28;20053;-76
2022/04/14 04:07:16;;;;;;;26.02;18.40;;;;;;;;;;5011665;28;20111;-77
2022/04/14 04:09:43;;;;;;;25.20;17.85;;;;;;;;;;5007551;28;20042;-76
2022/04/14 04:12:09;;;;;;;24.38;18.08;;;;;;;;;;5008691;28;20490;-77
2022/04/14 04:14:35;;;;;;;22.90;18.45;;;;;;;;;;5038065;28;20061;-77
2022/04/14 04:17:01;;;;;;;22.80;18.63;;;;;;;;;;5041126;28;20055;-77
2022/04/14 04:19:27;;;;;;;20.98;18.02;;;;;;;;;;5012973;28;20045;-77
2022/04/14 04:21:53;;;;;;;22.35;18.08;;;;;;;;;;5005327;28;20046;-77
2022/04/14 04:24:19;;;;;;;25.30;18.30;;;;;;;;;;5010851;28;20053;-77
2022/04/14 04:26:45;;;;;;;22.85;18.45;;;;;;;;;;5003120;28;20053;-77
2022/04/14 04:29:11;;;;;;;25.45;18.33;;;;;;;;;;5006366;28;20054;-77
2022/04/14 04:31:37;;;;;;;25.23;17.45;;;;;;;;;;5041922;28;20054;-77
2022/04/14 04:34:06;;;;;;;24.52;18.95;;;;;;;;;;5000035;28;20053;-77
2022/04/14 04:36:32;;;;;;;26.13;20.17;;;;;;;;;;5007878;28;20051;-77
2022/04/14 04:39:01;;;;;;;26.17;20.85;;;;;;;;;;5010256;28;20045;-76
2022/04/14 04:41:27;;;;;;;32.20;21.52;;;;;;;;;;5044234;28;20132;-77
2022/04/14 04:43:53;;;;;;;31.95;21.23;;;;;;;;;;5038738;28;20050;-77
2022/04/14 04:46:19;;;;;;;30.23;20.85;;;;;;;;;;5046071;28;20107;-77
2022/04/14 04:48:45;;;;;;;28.67;20.95;;;;;;;;;;5019983;28;20489;-77
2022/04/14 04:51:11;;;;;;;26.40;22.42;;;;;;;;;;5022042;28;20128;-77
2022/04/14 04:53:37;;;;;;;30.98;21.52;;;;;;;;;;5042403;28;20602;-77
2022/04/14 04:56:03;;;;;;;33.13;22.42;;;;;;;;;;5045670;28;20042;-77
2022/04/14 04:58:30;;;;;;;30.42;22.15;;;;;;;;;;5009945;28;20060;-77
2022/04/14 05:00:56;;;;;;;31.20;21.17;;;;;;;;;;5012129;28;20493;-77
2022/04/14 05:03:22;;;;;;;25.60;21.50;;;;;;;;;;5023566;28;20443;-77
2022/04/14 05:05:49;;;;;;;24.08;19.50;;;;;;;;;;5022250;28;20041;-77
2022/04/14 05:08:15;;;;;;;24.00;19.02;;;;;;;;;;5020387;28;20080;-77
2022/04/14 05:10:42;;;;;;;28.75;19.60;;;;;;;;;;5029933;28;20048;-77
2022/04/14 05:13:08;;;;;;;22.90;19.17;;;;;;;;;;5042894;28;20073;-77
2022/04/14 05:15:35;;;;;;;21.23;17.13;;;;;;;;;;5047019;28;20457;-77
2022/04/14 05:18:01;;;;;;;24.08;17.42;;;;;;;;;;5023348;28;20060;-77
2022/04/14 05:20:28;;;;;;;25.15;17.25;;;;;;;;;;5007858;28;20042;-76
2022/04/14 05:22:53;;;;;;;25.45;16.95;;;;;;;;;;5053722;28;20049;-76
2022/04/14 05:25:19;;;;;;;24.05;16.55;;;;;;;;;;5015866;28;20057;-77
2022/04/14 05:27:46;;;;;;;24.20;17.55;;;;;;;;;;5019886;28;22009;-76
2022/04/14 05:30:12;;;;;;;25.23;17.58;;;;;;;;;;5043455;28;20085;-76
2022/04/14 05:32:38;;;;;;;22.25;17.33;;;;;;;;;;5023695;28;20429;-76
2022/04/14 05:35:07;;;;;;;23.20;15.85;;;;;;;;;;5005920;28;20115;-77
2022/04/14 05:37:33;;;;;;;20.83;16.30;;;;;;;;;;5055021;28;20049;-76
2022/04/14 05:39:59;;;;;;;19.55;16.13;;;;;;;;;;5014890;28;20192;-76
2022/04/14 05:42:25;;;;;;;23.40;17.27;;;;;;;;;;5025101;28;20056;-76
2022/04/14 05:44:51;;;;;;;24.15;17.65;;;;;;;;;;5027126;28;20049;-76
2022/04/14 05:47:17;;;;;;;23.75;17.55;;;;;;;;;;5004601;28;20046;-76
2022/04/14 05:49:43;;;;;;;23.60;17.52;;;;;;;;;;5042910;28;20054;-77
2022/04/14 05:52:09;;;;;;;24.10;18.15;;;;;;;;;;5011334;28;20079;-77
2022/04/14 05:54:35;;;;;;;23.83;18.05;;;;;;;;;;5001961;28;20383;-77
2022/04/14 05:57:01;;;;;;;25.98;18.63;;;;;;;;;;5001228;28;20038;-77
2022/04/14 05:59:27;;;;;;;23.52;18.58;;;;;;;;;;5045119;28;20045;-77
2022/04/14 06:01:53;;;;;;;23.60;18.35;;;;;;;;;;5032073;28;20042;-77
2022/04/14 06:04:19;;;;;;;26.35;18.92;;;;;;;;;;4999418;28;20049;-77
2022/04/14 06:06:45;;;;;;;26.20;19.10;;;;;;;;;;5006345;28;20124;-77
2022/04/14 06:09:12;;;;;;;27.58;19.05;;;;;;;;;;5008241;28;20073;-77
2022/04/14 06:11:39;;;;;;;23.92;19.60;;;;;;;;;;5010496;28;20052;-77
2022/04/14 06:14:05;;;;;;;25.15;18.70;;;;;;;;;;5003771;28;20053;-77
2022/04/14 06:16:31;;;;;;;30.20;18.52;;;;;;;;;;5004934;28;20041;-77
2022/04/14 06:18:57;;;;;;;27.15;19.70;;;;;;;;;;5001711;28;20046;-77
2022/04/14 06:21:23;;;;;;;23.70;18.17;;;;;;;;;;5009561;28;20096;-77
2022/04/14 06:23:49;;;;;;;25.42;17.83;;;;;;;;;;5014758;28;20041;-78
2022/04/14 06:26:16;;;;;;;24.27;18.70;;;;;;;;;;5005450;28;20084;-77
2022/04/14 06:28:42;;;;;;;24.30;18.58;;;;;;;;;;5012001;28;20077;-77
2022/04/14 06:31:08;;;;;;;27.88;18.50;;;;;;;;;;5005228;28;20049;-77
2022/04/14 06:33:34;;;;;;;24.52;17.83;;;;;;;;;;5041046;28;20299;-78
2022/04/14 06:36:00;;;;;;;24.58;17.33;;;;;;;;;;5008406;28;20042;-78
2022/04/14 06:38:27;;;;;;;23.98;17.50;;;;;;;;;;5006305;28;20505;-77
2022/04/14 06:40:53;;;;;;;22.45;17.85;;;;;;;;;;5011710;28;20042;-77
2022/04/14 06:43:20;;;;;;;24.88;16.85;;;;;;;;;;5010950;28;20045;-77
2022/04/14 06:45:47;;;;;;;22.52;18.00;;;;;;;;;;5046971;28;20049;-77
2022/04/14 06:48:13;;;;;;;23.75;17.45;;;;;;;;;;5007040;28;20049;-77
2022/04/14 06:50:40;;;;;;;25.58;17.35;;;;;;;;;;5006695;28;20360;-77
2022/04/14 06:53:06;;;;;;;22.00;16.80;;;;;;;;;;5043676;28;20485;-77
2022/04/14 06:55:32;;;;;;;25.35;17.35;;;;;;;;;;5012583;28;20053;-77
2022/04/14 06:57:58;;;;;;;21.58;16.80;;;;;;;;;;5018406;28;20104;-77
2022/04/14 07:00:25;;;;;;;19.88;16.63;;;;;;;;;;5025308;28;20132;-77
2022/04/14 07:02:52;;;;;;;21.63;15.80;;;;;;;;;;5024157;28;20053;-77
2022/04/14 07:05:19;;;;;;;21.10;15.50;;;;;;;;;;5027037;28;20441;-77
2022/04/14 07:07:45;;;;;;;19.25;15.43;;;;;;;;;;5019337;28;20053;-77
2022/04/14 07:10:12;;;;;;;24.17;16.75;;;;;;;;;;5055910;28;20123;-77
2022/04/14 07:12:39;;;;;;;22.35;16.02;;;;;;;;;;5003349;28;20046;-76
2022/04/14 07:15:06;;;;;;;21.88;15.93;;;;;;;;;;5015065;28;20053;-77
2022/04/14 07:17:33;;;;;;;21.75;16.05;;;;;;;;;;5024782;28;20574;-76
2022/04/14 07:19:59;;;;;;;20.70;15.80;;;;;;;;;;5046555;28;20402;-76
2022/04/14 07:22:25;;;;;;;20.05;15.07;;;;;;;;;;5023991;28;20045;-77
2022/04/14 07:24:51;;;;;;;23.77;16.25;;;;;;;;;;5036034;28;20041;-77
2022/04/14 07:27:19;;;;;;;22.13;15.00;;;;;;;;;;5007903;28;20042;-76
2022/04/14 07:29:46;;;;;;;19.67;15.30;;;;;;;;;;5010320;28;20457;-77
2022/04/14 07:32:12;;;;;;;19.67;15.27;;;;;;;;;;5007076;28;20483;-76
2022/04/14 07:34:38;;;;;;;18.90;15.65;;;;;;;;;;5009762;28;20069;-76
2022/04/14 07:37:05;;;;;;;18.90;15.52;;;;;;;;;;5037619;28;20049;-76
2022/04/14 07:39:31;;;;;;;19.55;14.80;;;;;;;;;;5024726;28;20496;-77
2022/04/14 07:41:57;;;;;;;18.90;14.77;;;;;;;;;;5000807;28;20366;-77
2022/04/14 07:44:23;;;;;;;19.15;13.85;;;;;;;;;;5038994;28;20049;-77
2022/04/14 07:46:50;;;;;;;19.33;14.95;;;;;;;;;;5004266;28;20076;-77
2022/04/14 07:49:16;;;;;;;17.52;14.25;;;;;;;;;;5017545;28;20049;-76
2022/04/14 07:51:42;;;;;;;19.48;14.45;;;;;;;;;;5038381;28;20383;-77
2022/04/14 07:54:08;;;;;;;21.33;14.18;;;;;;;;;;5006292;28;20497;-77
2022/04/14 07:56:34;;;;;;;21.15;14.63;;;;;;;;;;5009578;28;20045;-78
2022/04/14 07:59:00;;;;;;;20.33;15.05;;;;;;;;;;5013742;28;20049;-77
2022/04/14 08:01:28;;;;;;;19.58;14.75;;;;;;;;;;5005264;28;20446;-76
2022/04/14 08:03:54;;;;;;;21.35;14.27;;;;;;;;;;5005819;28;20061;-77
2022/04/14 08:06:22;;;;;;;19.15;14.82;;;;;;;;;;5041854;28;20812;-77
2022/04/14 08:08:50;;;;;;;18.42;14.75;;;;;;;;;;5007630;28;20061;-78
2022/04/14 08:11:16;;;;;;;18.05;14.18;;;;;;;;;;5013389;28;20464;-77
2022/04/14 08:13:42;;;;;;;19.05;14.55;;;;;;;;;;5006053;28;20057;-77
2022/04/14 08:16:09;;;;;;;19.73;15.02;;;;;;;;;;5046236;28;20048;-77
2022/04/14 08:18:35;;;;;;;16.60;14.70;;;;;;;;;;5041832;28;20065;-77
2022/04/14 08:21:02;;;;;;;18.75;15.32;;;;;;;;;;5011210;28;20611;-77
2022/04/14 08:23:28;;;;;;;22.63;15.10;;;;;;;;;;5008911;28;20175;-77
2022/04/14 08:25:54;;;;;;;18.13;14.38;;;;;;;;;;5004055;28;20042;-77
2022/04/14 08:28:21;;;;;;;19.52;15.15;;;;;;;;;;5006009;28;20189;-77
2022/04/14 08:30:47;;;;;;;18.40;15.13;;;;;;;;;;5009089;28;20050;-77
2022/04/14 08:33:14;;;;;;;17.92;14.32;;;;;;;;;;5012516;28;20045;-77
2022/04/14 08:35:40;;;;;;;19.42;14.63;;;;;;;;;;5009066;28;20512;-77
2022/04/14 08:38:07;;;;;;;18.15;15.07;;;;;;;;;;5037005;28;20049;-77
2022/04/14 08:40:35;;;;;;;24.42;15.27;;;;;;;;;;5005417;28;20085;-76
2022/04/14 08:43:02;;;;;;;17.02;14.38;;;;;;;;;;5039790;28;20503;-77
2022/04/14 08:45:31;;;;;;;18.67;14.23;;;;;;;;;;5051039;28;20087;-77
2022/04/14 08:47:58;;;;;;;16.95;15.15;;;;;;;;;;5019226;28;20045;-77
2022/04/14 08:50:24;;;;;;;18.35;14.27;;;;;;;;;;5021872;28;20053;-77
2022/04/14 08:52:51;;;;;;;18.00;14.27;;;;;;;;;;5006660;28;20060;-77
2022/04/14 08:55:17;;;;;;;17.10;14.07;;;;;;;;;;5005750;28;20461;-77
2022/04/14 08:57:44;;;;;;;19.02;14.63;;;;;;;;;;5007849;28;20050;-77
2022/04/14 09:00:16;;;;;;;18.17;14.55;;;;;;;;;;5002674;28;20052;-77
2022/04/14 09:02:46;;;;;;;18.27;14.30;;;;;;;;;;5007149;28;20572;-77
2022/04/14 09:05:13;;;;;;;20.00;15.45;;;;;;;;;;5042807;28;20121;-77
2022/04/14 09:07:39;;;;;;;21.77;15.10;;;;;;;;;;4998749;28;20057;-77
2022/04/14 09:10:06;;;;;;;20.95;13.77;;;;;;;;;;5037618;28;20452;-79
2022/04/14 09:12:32;;;;;;;19.92;15.20;;;;;;;;;;5004275;28;20402;-77
2022/04/14 09:15:00;;;;;;;19.38;14.98;;;;;;;;;;4996225;28;20038;-77
2022/04/14 09:17:27;;;;;;;20.27;14.82;;;;;;;;;;4998480;28;20389;-77
2022/04/14 09:19:53;;;;;;;19.38;15.10;;;;;;;;;;5006988;28;20083;-76
2022/04/14 09:22:20;;;;;;;16.90;13.75;;;;;;;;;;5007827;28;20394;-76
2022/04/14 09:24:50;;;;;;;17.17;13.93;;;;;;;;;;5003767;28;20046;-76
2022/04/14 09:27:29;;;;;;;16.77;13.88;;;;;;;;;;5002922;28;20069;-76
2022/04/14 09:29:56;;;;;;;18.15;11.80;;;;;;;;;;5010047;28;20068;-77
2022/04/14 09:32:32;;;;;;;20.52;13.20;;;;;;;;;;5011252;28;20085;-77
2022/04/14 09:34:59;;;;;;;14.73;11.48;;;;;;;;;;5007327;28;20046;-76
2022/04/14 09:37:26;;;;;;;13.13;11.35;;;;;;;;;;5005695;28;20050;-76
2022/04/14 09:39:53;;;;;;;15.73;11.48;;;;;;;;;;5008606;28;20052;-76
2022/04/14 09:42:26;;;;;;;15.82;12.18;;;;;;;;;;5007142;28;20049;-76
2022/04/14 09:44:56;;;;;;;15.75;11.13;;;;;;;;;;5013607;28;20037;-77
2022/04/14 09:47:40;;;;;;;16.23;11.43;;;;;;;;;;5009873;28;20147;-77
2022/04/14 09:50:08;;;;;;;17.13;11.60;;;;;;;;;;5001756;28;20045;-77
2022/04/14 09:52:34;;;;;;;14.57;12.13;;;;;;;;;;5025991;28;20046;-78
2022/04/14 09:55:09;;;;;;;15.63;10.55;;;;;;;;;;5043588;28;20366;-77
2022/04/14 09:57:35;;;;;;;12.63;10.80;;;;;;;;;;5026941;28;20056;-77
2022/04/14 10:00:02;;;;;;;13.27;10.52;;;;;;;;;;5020394;28;20426;-78
2022/04/14 10:02:28;;;;;;;15.63;10.30;;;;;;;;;;5043771;28;20046;-77
2022/04/14 10:04:56;;;;;;;14.07;10.25;;;;;;;;;;5021604;28;20049;-78
2022/04/14 10:07:22;;;;;;;16.45;10.68;;;;;;;;;;5009376;28;20441;-77
2022/04/14 10:09:49;;;;;;;12.23;9.75;;;;;;;;;;5014660;28;20100;-77
2022/04/14 10:12:18;;;;;;;12.63;10.25;;;;;;;;;;4997454;28;20046;-78
2022/04/14 10:14:44;;;;;;;14.18;9.40;;;;;;;;;;5013338;28;20061;-78
2022/04/14 10:17:13;;;;;;;12.00;9.25;;;;;;;;;;5007782;28;20046;-80
2022/04/14 10:19:41;;;;;;;12.02;9.15;;;;;;;;;;5008624;28;20054;-78
2022/04/14 10:22:07;;;;;;;12.35;9.23;;;;;;;;;;5009161;28;20557;-77
2022/04/14 10:24:35;;;;;;;13.93;9.13;;;;;;;;;;5013053;28;20442;-77
2022/04/14 10:27:03;;;;;;;11.48;9.40;;;;;;;;;;5041234;28;20046;-78
2022/04/14 10:29:30;;;;;;;11.73;9.40;;;;;;;;;;5005553;28;20521;-78
2022/04/14 10:31:56;;;;;;;11.35;8.88;;;;;;;;;;5013578;28;20061;-78
2022/04/14 10:34:22;;;;;;;10.93;8.80;;;;;;;;;;5009468;28;21390;-78
2022/04/14 10:36:49;;;;;;;13.57;9.13;;;;;;;;;;5009818;28;20505;-78
2022/04/14 10:39:16;;;;;;;13.27;8.85;;;;;;;;;;5008589;28;20193;-78
2022/04/14 10:41:45;;;;;;;13.48;9.13;;;;;;;;;;5006673;28;20046;-78
2022/04/14 10:44:13;;;;;;;16.65;9.18;;;;;;;;;;5009449;28;20050;-78
2022/04/14 10:46:41;;;;;;;11.25;8.70;;;;;;;;;;5004207;28;20054;-78
2022/04/14 10:49:14;;;;;;;12.90;9.35;;;;;;;;;;5010755;28;20045;-78
2022/04/14 10:51:40;;;;;;;14.23;9.10;;;;;;;;;;5008515;28;20405;-74
2022/04/14 10:54:19;;;;;;;10.32;8.75;;;;;;;;;;5010683;28;20061;-76
2022/04/14 10:56:47;;;;;;;13.73;9.35;;;;;;;;;;5009385;28;20100;-76
2022/04/14 10:59:14;;;;;;;13.80;9.73;;;;;;;;;;5048515;28;20050;-76
2022/04/14 11:01:50;;;;;;;12.80;9.15;;;;;;;;;;5006010;28;20054;-76
2022/04/14 11:04:35;;;;;;;14.48;9.75;;;;;;;;;;5037157;28;20065;-76
2022/04/14 11:07:11;;;;;;;11.50;8.98;;;;;;;;;;5035268;28;20141;-77
2022/04/14 11:09:44;;;;;;;13.55;8.95;;;;;;;;;;5003713;28;20676;-79
2022/04/14 11:12:14;;;;;;;12.40;9.38;;;;;;;;;;5001437;28;20046;-78
2022/04/14 11:14:43;;;;;;;12.85;9.73;;;;;;;;;;4998263;28;20053;-78
2022/04/14 11:17:29;;;;;;;11.82;9.13;;;;;;;;;;5009383;28;20389;-78
2022/04/14 11:19:55;;;;;;;14.18;9.65;;;;;;;;;;5034920;28;20054;-78
2022/04/14 11:22:21;;;;;;;12.35;8.82;;;;;;;;;;5007607;28;20046;-78
2022/04/14 11:24:47;;;;;;;11.35;8.65;;;;;;;;;;5013955;28;20125;-78
2022/04/14 11:27:26;;;;;;;11.95;9.05;;;;;;;;;;5006531;28;20038;-79
2022/04/14 11:29:57;;;;;;;17.48;9.98;;;;;;;;;;5008327;28;20510;-79
2022/04/14 11:32:40;;;;;;;13.73;10.05;;;;;;;;;;5004612;28;20061;-78
2022/04/14 11:35:13;;;;;;;11.57;8.98;;;;;;;;;;5008267;28;20486;-78
2022/04/14 11:37:41;;;;;;;14.55;9.35;;;;;;;;;;5004452;28;20517;-78
2022/04/14 11:40:11;;;;;;;13.77;9.85;;;;;;;;;;5008717;28;20225;-80
2022/04/14 11:42:37;;;;;;;11.07;8.85;;;;;;;;;;5010650;28;20080;-79
2022/04/14 11:45:04;;;;;;;12.80;8.45;;;;;;;;;;5002205;28;20042;-78
2022/04/14 11:47:30;;;;;;;10.90;9.05;;;;;;;;;;5007013;28;20077;-79
2022/04/14 11:49:56;;;;;;;14.02;9.68;;;;;;;;;;5012109;28;20045;-81
2022/04/14 11:52:24;;;;;;;12.73;8.88;;;;;;;;;;5008742;28;20503;-78
2022/04/14 11:54:50;;;;;;;13.30;8.90;;;;;;;;;;5004873;28;20054;-78
2022/04/14 11:57:22;;;;;;;10.75;8.63;;;;;;;;;;5005977;28;20119;-78
2022/04/14 11:59:51;;;;;;;11.25;9.07;;;;;;;;;;5012741;28;20065;-78
2022/04/14 12:02:19;;;;;;;17.13;9.23;;;;;;;;;;5015858;28;20053;-75
2022/04/14 12:04:46;;;;;;;12.45;8.40;;;;;;;;;;5014391;28;20136;-78
2022/04/14 12:07:12;;;;;;;11.88;8.32;;;;;;;;;;5036974;28;20050;-78
2022/04/14 12:09:40;;;;;;;11.45;8.27;;;;;;;;;;5004765;28;20420;-78
2022/04/14 12:12:10;;;;;;;9.95;8.07;;;;;;;;;;5006569;28;20046;-78
2022/04/14 12:14:55;;;;;;;23.80;10.30;;;;;;;;;;5002387;28;20041;-78
2022/04/14 12:17:22;;;;;;;15.20;9.35;;;;;;;;;;5008078;28;20050;-78
2022/04/14 12:19:51;;;;;;;12.93;8.38;;;;;;;;;;5005849;28;20520;-78
2022/04/14 12:22:17;;;;;;;11.00;8.38;;;;;;;;;;5009353;28;20046;-78
2022/04/14 12:25:10;;;;;;;9.68;7.90;;;;;;;;;;4999325;28;20131;-81
2022/04/14 12:27:37;;;;;;;11.50;8.30;;;;;;;;;;5004547;28;20054;-78
2022/04/14 12:30:08;;;;;;;12.68;7.93;;;;;;;;;;5003443;28;20655;-77
2022/04/14 12:32:34;;;;;;;12.82;8.60;;;;;;;;;;5034494;28;20196;-78
2022/04/14 12:35:00;;;;;;;12.57;8.30;;;;;;;;;;5011864;28;20081;-78
2022/04/14 12:37:39;;;;;;;12.88;8.48;;;;;;;;;;5006581;28;20497;-78
2022/04/14 12:40:09;;;;;;;9.90;7.65;;;;;;;;;;5006951;28;20047;-77
2022/04/14 12:42:36;;;;;;;13.38;8.25;;;;;;;;;;5007671;28;20092;-79
2022/04/14 12:45:06;;;;;;;10.23;7.85;;;;;;;;;;5005073;28;20124;-78
2022/04/14 12:47:33;;;;;;;13.75;7.78;;;;;;;;;;5003721;28;20390;-78
2022/04/14 12:49:59;;;;;;;10.80;8.02;;;;;;;;;;5009005;28;20132;-79
2022/04/14 12:52:29;;;;;;;10.77;7.82;;;;;;;;;;5007669;28;20057;-78
2022/04/14 12:54:55;;;;;;;10.90;7.80;;;;;;;;;;5004617;28;20145;-78
2022/04/14 12:57:25;;;;;;;12.68;8.40;;;;;;;;;;5009091;28;22060;-78
2022/04/14 13:00:02;;;;;;;13.75;7.82;;;;;;;;;;5008874;28;20041;-77
2022/04/14 13:02:28;;;;;;;13.13;8.45;;;;;;;;;;5008932;28;20078;-77
2022/04/14 13:05:05;;;;;;;11.18;7.35;;;;;;;;;;5008009;28;20505;-78
2022/04/14 13:07:44;;;;;;;7.60;6.80;;;;;;;;;;4998884;28;20050;-78
2022/04/14 13:10:10;;;;;;;12.60;7.22;;;;;;;;;;5037796;28;21090;-79
2022/04/14 13:12:46;;;;;;;9.15;7.00;;;;;;;;;;5008789;28;20498;-79
2022/04/14 13:15:15;;;;;;;9.93;6.75;;;;;;;;;;5008145;28;20593;-78
2022/04/14 13:17:42;;;;;;;8.48;6.30;;;;;;;;;;5006007;28;20096;-78
2022/04/14 13:20:08;;;;;;;11.75;7.10;;;;;;;;;;5009499;28;21926;-78
2022/04/14 13:22:34;;;;;;;10.32;6.78;;;;;;;;;;5007523;28;20517;-79
2022/04/14 13:25:00;;;;;;;13.32;7.10;;;;;;;;;;5008008;28;20042;-78
2022/04/14 13:27:26;;;;;;;12.00;6.80;;;;;;;;;;5008815;28;20060;-78
2022/04/14 13:29:52;;;;;;;11.05;6.72;;;;;;;;;;5007981;28;20058;-78
2022/04/14 13:32:18;;;;;;;12.43;7.90;;;;;;;;;;5004376;28;20050;-78
2022/04/14 13:34:44;;;;;;;12.75;6.70;;;;;;;;;;5013793;28;20053;-78
2022/04/14 13:37:10;;;;;;;10.90;7.10;;;;;;;;;;5005600;28;20393;-78
2022/04/14 13:39:36;;;;;;;9.68;7.50;;;;;;;;;;5017206;28;20132;-78
2022/04/14 13:42:03;;;;;;;10.95;7.18;;;;;;;;;;5017570;28;20494;-79
2022/04/14 13:44:29;;;;;;;13.45;7.97;;;;;;;;;;5014875;28;20038;-78
2022/04/14 13:46:56;;;;;;;11.57;7.47;;;;;;;;;;5014051;28;20038;-79
2022/04/14 13:49:22;;;;;;;9.88;7.28;;;;;;;;;;5014166;28;20559;-77
2022/04/14 13:51:48;;;;;;;10.98;7.13;;;;;;;;;;5011411;28;20476;-78
2022/04/14 13:54:16;;;;;;;11.63;7.10;;;;;;;;;;5012015;28;20098;-78
2022/04/14 13:56:42;;;;;;;12.10;7.55;;;;;;;;;;5014107;28;20041;-78
2022/04/14 13:59:08;;;;;;;11.63;6.88;;;;;;;;;;5009660;28;20123;-78
2022/04/14 14:01:35;;;;;;;10.13;7.00;;;;;;;;;;5009495;28;20042;-78
2022/04/14 14:04:01;;;;;;;9.75;6.68;;;;;;;;;;5014901;28;20473;-78
2022/04/14 14:06:27;;;;;;;9.40;6.57;;;;;;;;;;5011005;28;20042;-77
2022/04/14 14:08:53;;;;;;;9.55;6.20;;;;;;;;;;5006814;28;20391;-77
2022/04/14 14:11:19;;;;;;;10.88;6.35;;;;;;;;;;5008096;28;20037;-76
2022/04/14 14:13:46;;;;;;;8.02;5.50;;;;;;;;;;5010091;28;20093;-77
2022/04/14 14:16:12;;;;;;;6.32;4.93;;;;;;;;;;5014055;28;20046;-77
2022/04/14 14:18:38;;;;;;;10.07;4.50;;;;;;;;;;5006952;28;20041;-75
2022/04/14 14:21:04;;;;;;;6.70;4.70;;;;;;;;;;5005946;28;20449;-74
2022/04/14 14:23:30;;;;;;;5.15;4.18;;;;;;;;;;5008547;28;20164;-74